sensor_id;sensor_type;location;lat;lon;timestamp;temperature;humidity
13684;DHT22;6914;53.552;9.908;2022-08-19T00:01:31;19.60;99.90
13684;DHT22;6914;53.552;9.908;2022-08-19T00:04:01;19.60;99.90
13684;DHT22;6914;53.552;9.908;2022-08-19T00:06:30;19.60;99.90
13684;DHT22;6914;53.552;9.908;2022-08-19T00:08:58;19.60;99.90
13684;DHT22;6914;53.552;9.908;2022-08-19T00:11:27;19.60;99.90
13684;DHT22;6914;53.552;9.908;2022-08-19T00:13:54;19.60;99.90
13684;DHT22;6914;53.552;9.908;2022-08-19T00:16:23;19.60;99.90
13684;DHT22;6914;53.552;9.908;2022-08-19T00:18:50;19.60;99.90
13684;DHT22;6914;53.552;9.908;2022-08-19T00:21:18;19.60;99.90
13684;DHT22;6914;53.552;9.908;2022-08-19T00:23:45;19.60;99.90
13684;DHT22;6914;53.552;9.908;2022-08-19T00:26:12;19.60;99.90
13684;DHT22;6914;53.552;9.908;2022-08-19T00:28:40;19.70;99.90
13684;DHT22;6914;53.552;9.908;2022-08-19T00:31:08;19.70;99.90
13684;DHT22;6914;53.552;9.908;2022-08-19T00:33:36;19.70;99.90
13684;DHT22;6914;53.552;9.908;2022-08-19T00:36:05;19.70;99.90
13684;DHT22;6914;53.552;9.908;2022-08-19T00:38:34;19.80;99.90
13684;DHT22;6914;53.552;9.908;2022-08-19T00:41:01;19.80;99.90
13684;DHT22;6914;53.552;9.908;2022-08-19T00:43:27;19.80;99.90
13684;DHT22;6914;53.552;9.908;2022-08-19T00:45:56;19.80;99.90
13684;DHT22;6914;53.552;9.908;2022-08-19T00:48:23;19.80;99.90
13684;DHT22;6914;53.552;9.908;2022-08-19T00:50:51;19.70;99.90
13684;DHT22;6914;53.552;9.908;2022-08-19T00:53:20;19.70;99.90
13684;DHT22;6914;53.552;9.908;2022-08-19T00:55:50;19.60;99.90
13684;DHT22;6914;53.552;9.908;2022-08-19T00:58:19;19.60;99.90
13684;DHT22;6914;53.552;9.908;2022-08-19T01:00:46;19.60;99.90
13684;DHT22;6914;53.552;9.908;2022-08-19T01:03:17;19.50;99.90
13684;DHT22;6914;53.552;9.908;2022-08-19T01:05:45;19.70;99.90
13684;DHT22;6914;53.552;9.908;2022-08-19T01:08:15;19.70;99.90
13684;DHT22;6914;53.552;9.908;2022-08-19T01:10:46;19.60;99.90
13684;DHT22;6914;53.552;9.908;2022-08-19T01:13:15;19.60;99.90
13684;DHT22;6914;53.552;9.908;2022-08-19T01:15:47;19.50;99.90
13684;DHT22;6914;53.552;9.908;2022-08-19T01:18:18;19.50;99.90
13684;DHT22;6914;53.552;9.908;2022-08-19T01:20:46;19.50;99.90
13684;DHT22;6914;53.552;9.908;2022-08-19T01:23:14;19.60;99.90
13684;DHT22;6914;53.552;9.908;2022-08-19T01:25:45;19.50;99.90
13684;DHT22;6914;53.552;9.908;2022-08-19T01:28:18;19.50;99.90
13684;DHT22;6914;53.552;9.908;2022-08-19T01:30:46;19.40;99.90
13684;DHT22;6914;53.552;9.908;2022-08-19T01:33:13;19.50;99.90
13684;DHT22;6914;53.552;9.908;2022-08-19T01:35:41;19.40;99.90
13684;DHT22;6914;53.552;9.908;2022-08-19T01:38:18;19.40;99.90
13684;DHT22;6914;53.552;9.908;2022-08-19T01:40:47;19.50;99.90
13684;DHT22;6914;53.552;9.908;2022-08-19T01:43:14;19.50;99.90
13684;DHT22;6914;53.552;9.908;2022-08-19T01:45:40;19.50;99.90
13684;DHT22;6914;53.552;9.908;2022-08-19T01:48:08;19.40;99.90
13684;DHT22;6914;53.552;9.908;2022-08-19T01:50:35;19.40;99.90
13684;DHT22;6914;53.552;9.908;2022-08-19T01:53:05;19.50;99.90
13684;DHT22;6914;53.552;9.908;2022-08-19T01:55:34;19.50;99.90
13684;DHT22;6914;53.552;9.908;2022-08-19T01:58:04;19.50;99.90
13684;DHT22;6914;53.552;9.908;2022-08-19T02:00:33;19.50;99.90
13684;DHT22;6914;53.552;9.908;2022-08-19T02:03:00;19.40;99.90
13684;DHT22;6914;53.552;9.908;2022-08-19T02:05:27;19.40;99.90
13684;DHT22;6914;53.552;9.908;2022-08-19T02:07:54;19.30;99.90
13684;DHT22;6914;53.552;9.908;2022-08-19T02:10:22;19.30;99.90
13684;DHT22;6914;53.552;9.908;2022-08-19T02:12:50;19.30;99.90
13684;DHT22;6914;53.552;9.908;2022-08-19T02:15:19;19.30;99.90
13684;DHT22;6914;53.552;9.908;2022-08-19T02:17:47;19.30;99.90
13684;DHT22;6914;53.552;9.908;2022-08-19T02:20:15;19.20;99.90
13684;DHT22;6914;53.552;9.908;2022-08-19T02:22:43;19.20;99.90
13684;DHT22;6914;53.552;9.908;2022-08-19T02:25:11;19.20;99.90
13684;DHT22;6914;53.552;9.908;2022-08-19T02:27:38;19.20;99.90
13684;DHT22;6914;53.552;9.908;2022-08-19T02:30:08;19.20;99.90
13684;DHT22;6914;53.552;9.908;2022-08-19T02:32:36;19.20;99.90
13684;DHT22;6914;53.552;9.908;2022-08-19T02:35:04;19.20;99.90
13684;DHT22;6914;53.552;9.908;2022-08-19T02:37:31;19.10;99.90
13684;DHT22;6914;53.552;9.908;2022-08-19T02:40:15;19.10;99.90
13684;DHT22;6914;53.552;9.908;2022-08-19T02:42:43;19.00;99.90
13684;DHT22;6914;53.552;9.908;2022-08-19T02:45:11;19.00;99.90
13684;DHT22;6914;53.552;9.908;2022-08-19T02:47:40;19.10;99.90
13684;DHT22;6914;53.552;9.908;2022-08-19T02:50:08;19.00;99.90
13684;DHT22;6914;53.552;9.908;2022-08-19T02:52:35;19.10;99.90
13684;DHT22;6914;53.552;9.908;2022-08-19T02:55:02;19.10;99.90
13684;DHT22;6914;53.552;9.908;2022-08-19T02:57:30;19.10;99.90
13684;DHT22;6914;53.552;9.908;2022-08-19T02:59:58;19.10;99.90
13684;DHT22;6914;53.552;9.908;2022-08-19T03:02:25;19.10;99.90
13684;DHT22;6914;53.552;9.908;2022-08-19T03:04:54;19.10;99.90
13684;DHT22;6914;53.552;9.908;2022-08-19T03:07:21;19.10;99.90
13684;DHT22;6914;53.552;9.908;2022-08-19T03:09:47;19.00;99.90
13684;DHT22;6914;53.552;9.908;2022-08-19T03:12:14;19.00;99.90
13684;DHT22;6914;53.552;9.908;2022-08-19T03:14:41;19.00;99.90
13684;DHT22;6914;53.552;9.908;2022-08-19T03:17:08;19.00;99.90
13684;DHT22;6914;53.552;9.908;2022-08-19T03:19:35;18.90;99.90
13684;DHT22;6914;53.552;9.908;2022-08-19T03:22:03;18.90;99.90
13684;DHT22;6914;53.552;9.908;2022-08-19T03:24:30;18.90;99.90
13684;DHT22;6914;53.552;9.908;2022-08-19T03:26:58;18.80;99.90
13684;DHT22;6914;53.552;9.908;2022-08-19T03:29:25;18.80;99.90
13684;DHT22;6914;53.552;9.908;2022-08-19T03:31:52;18.80;99.90
13684;DHT22;6914;53.552;9.908;2022-08-19T03:34:22;18.70;99.90
13684;DHT22;6914;53.552;9.908;2022-08-19T03:36:52;18.80;99.90
13684;DHT22;6914;53.552;9.908;2022-08-19T03:39:21;18.80;99.90
13684;DHT22;6914;53.552;9.908;2022-08-19T03:41:49;18.80;99.90
13684;DHT22;6914;53.552;9.908;2022-08-19T03:44:19;18.80;99.90
13684;DHT22;6914;53.552;9.908;2022-08-19T03:46:47;18.70;99.90
13684;DHT22;6914;53.552;9.908;2022-08-19T03:49:15;18.70;99.90
13684;DHT22;6914;53.552;9.908;2022-08-19T03:51:42;18.80;99.90
13684;DHT22;6914;53.552;9.908;2022-08-19T03:54:12;18.70;99.90
13684;DHT22;6914;53.552;9.908;2022-08-19T03:56:42;18.70;99.90
13684;DHT22;6914;53.552;9.908;2022-08-19T03:59:14;18.80;99.90
13684;DHT22;6914;53.552;9.908;2022-08-19T04:01:41;18.70;99.90
13684;DHT22;6914;53.552;9.908;2022-08-19T04:04:08;18.70;99.90
13684;DHT22;6914;53.552;9.908;2022-08-19T04:06:37;18.70;99.90
13684;DHT22;6914;53.552;9.908;2022-08-19T04:09:06;18.70;99.90
13684;DHT22;6914;53.552;9.908;2022-08-19T04:11:36;18.70;99.90
13684;DHT22;6914;53.552;9.908;2022-08-19T04:14:08;18.70;99.90
13684;DHT22;6914;53.552;9.908;2022-08-19T04:16:35;18.60;99.90
13684;DHT22;6914;53.552;9.908;2022-08-19T04:19:04;18.70;99.90
13684;DHT22;6914;53.552;9.908;2022-08-19T04:21:31;18.70;99.90
13684;DHT22;6914;53.552;9.908;2022-08-19T04:23:58;18.60;99.90
13684;DHT22;6914;53.552;9.908;2022-08-19T04:26:27;18.50;99.90
13684;DHT22;6914;53.552;9.908;2022-08-19T04:28:56;18.50;99.90
13684;DHT22;6914;53.552;9.908;2022-08-19T04:31:26;18.50;99.90
13684;DHT22;6914;53.552;9.908;2022-08-19T04:33:53;18.60;99.90
13684;DHT22;6914;53.552;9.908;2022-08-19T04:36:25;18.50;99.90
13684;DHT22;6914;53.552;9.908;2022-08-19T04:38:54;18.50;99.90
13684;DHT22;6914;53.552;9.908;2022-08-19T04:41:21;18.50;99.90
13684;DHT22;6914;53.552;9.908;2022-08-19T04:44:05;18.50;99.90
13684;DHT22;6914;53.552;9.908;2022-08-19T04:46:34;18.50;99.90
13684;DHT22;6914;53.552;9.908;2022-08-19T04:49:03;18.50;99.90
13684;DHT22;6914;53.552;9.908;2022-08-19T04:51:30;18.50;99.90
13684;DHT22;6914;53.552;9.908;2022-08-19T04:53:57;18.40;99.90
13684;DHT22;6914;53.552;9.908;2022-08-19T04:56:25;18.40;99.90
13684;DHT22;6914;53.552;9.908;2022-08-19T04:58:54;18.40;99.90
13684;DHT22;6914;53.552;9.908;2022-08-19T05:01:24;18.50;99.90
13684;DHT22;6914;53.552;9.908;2022-08-19T05:03:52;18.50;99.90
13684;DHT22;6914;53.552;9.908;2022-08-19T05:06:21;18.50;99.90
13684;DHT22;6914;53.552;9.908;2022-08-19T05:08:49;18.50;99.90
13684;DHT22;6914;53.552;9.908;2022-08-19T05:11:18;18.50;99.90
13684;DHT22;6914;53.552;9.908;2022-08-19T05:13:57;18.50;99.90
13684;DHT22;6914;53.552;9.908;2022-08-19T05:16:39;18.50;99.90
13684;DHT22;6914;53.552;9.908;2022-08-19T05:19:08;18.40;99.90
13684;DHT22;6914;53.552;9.908;2022-08-19T05:21:59;18.30;99.90
13684;DHT22;6914;53.552;9.908;2022-08-19T05:24:43;18.30;99.90
13684;DHT22;6914;53.552;9.908;2022-08-19T05:27:10;18.20;99.90
13684;DHT22;6914;53.552;9.908;2022-08-19T05:29:40;18.30;99.90
13684;DHT22;6914;53.552;9.908;2022-08-19T05:32:07;18.30;99.90
13684;DHT22;6914;53.552;9.908;2022-08-19T05:34:37;18.30;99.90
13684;DHT22;6914;53.552;9.908;2022-08-19T05:37:05;18.20;99.90
13684;DHT22;6914;53.552;9.908;2022-08-19T05:39:35;18.30;99.90
13684;DHT22;6914;53.552;9.908;2022-08-19T05:42:04;18.30;99.90
13684;DHT22;6914;53.552;9.908;2022-08-19T05:44:33;18.30;99.90
13684;DHT22;6914;53.552;9.908;2022-08-19T05:47:01;18.30;99.90
13684;DHT22;6914;53.552;9.908;2022-08-19T05:49:30;18.30;99.90
13684;DHT22;6914;53.552;9.908;2022-08-19T05:52:01;18.30;99.90
13684;DHT22;6914;53.552;9.908;2022-08-19T05:54:29;18.30;99.90
13684;DHT22;6914;53.552;9.908;2022-08-19T05:56:56;18.30;99.90
13684;DHT22;6914;53.552;9.908;2022-08-19T05:59:24;18.40;99.90
13684;DHT22;6914;53.552;9.908;2022-08-19T06:01:51;18.40;99.90
13684;DHT22;6914;53.552;9.908;2022-08-19T06:04:20;18.40;99.90
13684;DHT22;6914;53.552;9.908;2022-08-19T06:06:51;18.40;99.90
13684;DHT22;6914;53.552;9.908;2022-08-19T06:09:21;18.50;99.90
13684;DHT22;6914;53.552;9.908;2022-08-19T06:11:50;18.40;99.90
13684;DHT22;6914;53.552;9.908;2022-08-19T06:14:21;18.40;99.90
13684;DHT22;6914;53.552;9.908;2022-08-19T06:16:49;18.40;99.90
13684;DHT22;6914;53.552;9.908;2022-08-19T06:19:19;18.50;99.90
13684;DHT22;6914;53.552;9.908;2022-08-19T06:21:48;18.50;99.90
13684;DHT22;6914;53.552;9.908;2022-08-19T06:24:17;18.50;99.90
13684;DHT22;6914;53.552;9.908;2022-08-19T06:26:47;18.50;99.90
13684;DHT22;6914;53.552;9.908;2022-08-19T06:29:16;18.50;99.90
13684;DHT22;6914;53.552;9.908;2022-08-19T06:31:50;18.50;99.90
13684;DHT22;6914;53.552;9.908;2022-08-19T06:34:18;18.60;99.90
13684;DHT22;6914;53.552;9.908;2022-08-19T06:36:48;18.70;99.90
13684;DHT22;6914;53.552;9.908;2022-08-19T06:39:19;18.70;99.90
13684;DHT22;6914;53.552;9.908;2022-08-19T06:41:49;18.60;99.90
13684;DHT22;6914;53.552;9.908;2022-08-19T06:44:17;18.60;99.90
13684;DHT22;6914;53.552;9.908;2022-08-19T06:46:44;18.60;99.90
13684;DHT22;6914;53.552;9.908;2022-08-19T06:49:10;18.50;99.90
13684;DHT22;6914;53.552;9.908;2022-08-19T06:51:40;18.60;99.90
13684;DHT22;6914;53.552;9.908;2022-08-19T06:54:08;18.60;99.90
13684;DHT22;6914;53.552;9.908;2022-08-19T06:56:35;18.60;99.90
13684;DHT22;6914;53.552;9.908;2022-08-19T06:59:05;18.60;99.90
13684;DHT22;6914;53.552;9.908;2022-08-19T07:01:34;18.60;99.90
13684;DHT22;6914;53.552;9.908;2022-08-19T07:04:04;18.60;99.90
13684;DHT22;6914;53.552;9.908;2022-08-19T07:06:31;18.70;99.90
13684;DHT22;6914;53.552;9.908;2022-08-19T07:08:58;18.70;99.90
13684;DHT22;6914;53.552;9.908;2022-08-19T07:11:25;18.70;99.90
13684;DHT22;6914;53.552;9.908;2022-08-19T07:13:52;18.70;99.90
13684;DHT22;6914;53.552;9.908;2022-08-19T07:16:21;18.80;99.90
13684;DHT22;6914;53.552;9.908;2022-08-19T07:18:49;18.80;99.90
13684;DHT22;6914;53.552;9.908;2022-08-19T07:21:19;18.90;99.90
13684;DHT22;6914;53.552;9.908;2022-08-19T07:23:48;19.00;99.90
13684;DHT22;6914;53.552;9.908;2022-08-19T07:26:18;19.10;99.90
13684;DHT22;6914;53.552;9.908;2022-08-19T07:28:46;19.20;99.90
13684;DHT22;6914;53.552;9.908;2022-08-19T07:31:16;19.20;99.90
13684;DHT22;6914;53.552;9.908;2022-08-19T07:33:45;19.20;99.90
13684;DHT22;6914;53.552;9.908;2022-08-19T07:36:14;19.20;99.90
13684;DHT22;6914;53.552;9.908;2022-08-19T07:38:44;19.20;99.90
13684;DHT22;6914;53.552;9.908;2022-08-19T07:41:14;19.30;99.90
13684;DHT22;6914;53.552;9.908;2022-08-19T07:43:42;19.20;99.90
13684;DHT22;6914;53.552;9.908;2022-08-19T07:46:12;20.00;99.90
13684;DHT22;6914;53.552;9.908;2022-08-19T07:48:41;19.30;99.90
13684;DHT22;6914;53.552;9.908;2022-08-19T07:51:10;19.30;99.90
13684;DHT22;6914;53.552;9.908;2022-08-19T07:53:38;19.40;99.90
13684;DHT22;6914;53.552;9.908;2022-08-19T07:56:05;19.40;99.90
13684;DHT22;6914;53.552;9.908;2022-08-19T07:58:34;19.40;99.90
13684;DHT22;6914;53.552;9.908;2022-08-19T08:01:02;19.50;99.90
13684;DHT22;6914;53.552;9.908;2022-08-19T08:03:29;19.50;99.90
13684;DHT22;6914;53.552;9.908;2022-08-19T08:06:15;19.50;99.90
13684;DHT22;6914;53.552;9.908;2022-08-19T08:09:00;19.40;99.90
13684;DHT22;6914;53.552;9.908;2022-08-19T08:11:44;19.50;99.90
13684;DHT22;6914;53.552;9.908;2022-08-19T08:14:15;19.40;99.90
13684;DHT22;6914;53.552;9.908;2022-08-19T08:16:42;19.40;99.90
13684;DHT22;6914;53.552;9.908;2022-08-19T08:19:11;19.40;99.90
13684;DHT22;6914;53.552;9.908;2022-08-19T08:21:42;19.40;99.90
13684;DHT22;6914;53.552;9.908;2022-08-19T08:24:09;19.30;99.90
13684;DHT22;6914;53.552;9.908;2022-08-19T08:26:36;19.30;99.90
13684;DHT22;6914;53.552;9.908;2022-08-19T08:29:03;19.40;99.90
13684;DHT22;6914;53.552;9.908;2022-08-19T08:31:30;19.50;99.90
13684;DHT22;6914;53.552;9.908;2022-08-19T08:33:57;19.50;99.90
13684;DHT22;6914;53.552;9.908;2022-08-19T08:36:24;19.60;99.90
13684;DHT22;6914;53.552;9.908;2022-08-19T08:38:54;19.60;99.90
13684;DHT22;6914;53.552;9.908;2022-08-19T08:41:27;19.70;99.90
13684;DHT22;6914;53.552;9.908;2022-08-19T08:43:55;19.70;99.90
13684;DHT22;6914;53.552;9.908;2022-08-19T08:46:27;19.80;99.90
13684;DHT22;6914;53.552;9.908;2022-08-19T08:49:00;19.90;99.90
13684;DHT22;6914;53.552;9.908;2022-08-19T08:51:33;20.00;99.90
13684;DHT22;6914;53.552;9.908;2022-08-19T08:54:05;20.00;99.90
13684;DHT22;6914;53.552;9.908;2022-08-19T08:56:33;20.10;99.90
13684;DHT22;6914;53.552;9.908;2022-08-19T08:59:04;20.20;99.90
13684;DHT22;6914;53.552;9.908;2022-08-19T09:01:34;20.10;99.90
13684;DHT22;6914;53.552;9.908;2022-08-19T09:04:03;20.10;99.90
13684;DHT22;6914;53.552;9.908;2022-08-19T09:06:38;20.20;99.90
13684;DHT22;6914;53.552;9.908;2022-08-19T09:09:15;20.20;99.90
13684;DHT22;6914;53.552;9.908;2022-08-19T09:11:50;20.30;99.90
13684;DHT22;6914;53.552;9.908;2022-08-19T09:14:34;20.40;99.90
13684;DHT22;6914;53.552;9.908;2022-08-19T09:17:02;20.40;99.90
13684;DHT22;6914;53.552;9.908;2022-08-19T09:19:33;20.40;99.90
13684;DHT22;6914;53.552;9.908;2022-08-19T09:22:00;20.60;99.90
13684;DHT22;6914;53.552;9.908;2022-08-19T09:24:28;20.70;99.90
13684;DHT22;6914;53.552;9.908;2022-08-19T09:26:55;20.70;99.90
13684;DHT22;6914;53.552;9.908;2022-08-19T09:29:22;20.70;99.90
13684;DHT22;6914;53.552;9.908;2022-08-19T09:31:50;20.60;99.90
13684;DHT22;6914;53.552;9.908;2022-08-19T09:34:17;20.50;99.90
13684;DHT22;6914;53.552;9.908;2022-08-19T09:36:45;20.40;99.90
13684;DHT22;6914;53.552;9.908;2022-08-19T09:39:12;20.50;99.90
13684;DHT22;6914;53.552;9.908;2022-08-19T09:41:40;20.60;99.90
13684;DHT22;6914;53.552;9.908;2022-08-19T09:44:07;20.60;99.90
13684;DHT22;6914;53.552;9.908;2022-08-19T09:46:34;20.70;99.90
13684;DHT22;6914;53.552;9.908;2022-08-19T09:49:01;20.70;99.90
13684;DHT22;6914;53.552;9.908;2022-08-19T09:51:29;20.70;99.90
13684;DHT22;6914;53.552;9.908;2022-08-19T09:53:59;20.80;99.90
13684;DHT22;6914;53.552;9.908;2022-08-19T09:56:27;20.80;99.90
13684;DHT22;6914;53.552;9.908;2022-08-19T09:58:57;20.70;99.90
13684;DHT22;6914;53.552;9.908;2022-08-19T10:01:26;20.70;99.90
13684;DHT22;6914;53.552;9.908;2022-08-19T10:03:56;20.80;99.90
13684;DHT22;6914;53.552;9.908;2022-08-19T10:06:26;20.80;99.90
13684;DHT22;6914;53.552;9.908;2022-08-19T10:08:55;20.80;99.90
13684;DHT22;6914;53.552;9.908;2022-08-19T10:11:23;20.60;99.90
13684;DHT22;6914;53.552;9.908;2022-08-19T10:13:49;20.60;99.90
13684;DHT22;6914;53.552;9.908;2022-08-19T10:16:20;20.60;99.90
13684;DHT22;6914;53.552;9.908;2022-08-19T10:18:47;20.60;99.90
13684;DHT22;6914;53.552;9.908;2022-08-19T10:21:16;20.60;99.90
13684;DHT22;6914;53.552;9.908;2022-08-19T10:23:45;20.70;99.90
13684;DHT22;6914;53.552;9.908;2022-08-19T10:26:14;20.70;99.90
13684;DHT22;6914;53.552;9.908;2022-08-19T10:28:42;20.60;99.90
13684;DHT22;6914;53.552;9.908;2022-08-19T10:31:11;20.60;99.90
13684;DHT22;6914;53.552;9.908;2022-08-19T10:33:39;20.60;99.90
13684;DHT22;6914;53.552;9.908;2022-08-19T10:36:09;20.60;99.90
13684;DHT22;6914;53.552;9.908;2022-08-19T10:38:37;20.70;99.90
13684;DHT22;6914;53.552;9.908;2022-08-19T10:41:09;20.60;99.90
13684;DHT22;6914;53.552;9.908;2022-08-19T10:43:36;20.60;99.90
13684;DHT22;6914;53.552;9.908;2022-08-19T10:46:05;20.60;99.90
13684;DHT22;6914;53.552;9.908;2022-08-19T10:48:32;20.60;99.90
13684;DHT22;6914;53.552;9.908;2022-08-19T10:51:02;20.60;99.90
13684;DHT22;6914;53.552;9.908;2022-08-19T10:53:46;20.60;99.90
13684;DHT22;6914;53.552;9.908;2022-08-19T10:56:13;20.60;99.90
13684;DHT22;6914;53.552;9.908;2022-08-19T10:58:58;20.60;99.90
13684;DHT22;6914;53.552;9.908;2022-08-19T11:01:25;20.90;99.90
13684;DHT22;6914;53.552;9.908;2022-08-19T11:03:52;20.90;99.90
13684;DHT22;6914;53.552;9.908;2022-08-19T11:06:21;21.00;99.90
13684;DHT22;6914;53.552;9.908;2022-08-19T11:08:47;21.20;99.90
13684;DHT22;6914;53.552;9.908;2022-08-19T11:11:14;21.20;99.90
13684;DHT22;6914;53.552;9.908;2022-08-19T11:13:42;21.30;99.90
13684;DHT22;6914;53.552;9.908;2022-08-19T11:16:12;21.40;99.90
13684;DHT22;6914;53.552;9.908;2022-08-19T11:18:42;21.50;99.90
13684;DHT22;6914;53.552;9.908;2022-08-19T11:21:12;21.80;99.90
13684;DHT22;6914;53.552;9.908;2022-08-19T11:23:41;21.90;99.90
13684;DHT22;6914;53.552;9.908;2022-08-19T11:26:09;22.00;99.90
13684;DHT22;6914;53.552;9.908;2022-08-19T11:28:36;21.90;99.90
13684;DHT22;6914;53.552;9.908;2022-08-19T11:31:04;22.10;99.90
13684;DHT22;6914;53.552;9.908;2022-08-19T11:33:31;22.20;99.90
13684;DHT22;6914;53.552;9.908;2022-08-19T11:35:58;22.50;99.90
13684;DHT22;6914;53.552;9.908;2022-08-19T11:38:26;22.80;99.90
13684;DHT22;6914;53.552;9.908;2022-08-19T11:41:00;23.10;99.90
13684;DHT22;6914;53.552;9.908;2022-08-19T11:43:28;23.40;99.90
13684;DHT22;6914;53.552;9.908;2022-08-19T11:45:55;23.30;99.90
13684;DHT22;6914;53.552;9.908;2022-08-19T11:48:23;23.40;99.90
13684;DHT22;6914;53.552;9.908;2022-08-19T11:50:52;23.40;99.90
13684;DHT22;6914;53.552;9.908;2022-08-19T11:53:20;23.10;99.90
13684;DHT22;6914;53.552;9.908;2022-08-19T11:55:48;22.70;99.90
13684;DHT22;6914;53.552;9.908;2022-08-19T11:58:17;22.40;99.90
13684;DHT22;6914;53.552;9.908;2022-08-19T12:00:44;22.20;99.90
13684;DHT22;6914;53.552;9.908;2022-08-19T12:03:12;22.00;99.90
13684;DHT22;6914;53.552;9.908;2022-08-19T12:05:40;21.90;99.90
13684;DHT22;6914;53.552;9.908;2022-08-19T12:08:07;21.90;99.90
13684;DHT22;6914;53.552;9.908;2022-08-19T12:10:35;22.10;99.90
13684;DHT22;6914;53.552;9.908;2022-08-19T12:13:02;22.30;99.90
13684;DHT22;6914;53.552;9.908;2022-08-19T12:15:35;22.50;99.90
13684;DHT22;6914;53.552;9.908;2022-08-19T12:18:02;22.60;99.90
13684;DHT22;6914;53.552;9.908;2022-08-19T12:20:29;22.90;99.90
13684;DHT22;6914;53.552;9.908;2022-08-19T12:22:56;23.10;99.90
13684;DHT22;6914;53.552;9.908;2022-08-19T12:25:23;23.50;99.90
13684;DHT22;6914;53.552;9.908;2022-08-19T12:27:50;24.20;99.90
13684;DHT22;6914;53.552;9.908;2022-08-19T12:30:17;24.60;99.90
13684;DHT22;6914;53.552;9.908;2022-08-19T12:32:45;24.90;99.90
13684;DHT22;6914;53.552;9.908;2022-08-19T12:35:12;25.30;99.90
13684;DHT22;6914;53.552;9.908;2022-08-19T12:37:39;25.40;99.90
13684;DHT22;6914;53.552;9.908;2022-08-19T12:40:11;25.40;99.90
13684;DHT22;6914;53.552;9.908;2022-08-19T12:42:39;25.60;99.90
13684;DHT22;6914;53.552;9.908;2022-08-19T12:45:08;25.90;99.90
13684;DHT22;6914;53.552;9.908;2022-08-19T12:47:36;26.20;99.90
13684;DHT22;6914;53.552;9.908;2022-08-19T12:50:06;26.00;99.90
13684;DHT22;6914;53.552;9.908;2022-08-19T12:52:34;26.40;99.90
13684;DHT22;6914;53.552;9.908;2022-08-19T12:55:02;26.70;99.90
13684;DHT22;6914;53.552;9.908;2022-08-19T12:57:30;26.60;99.90
13684;DHT22;6914;53.552;9.908;2022-08-19T12:59:59;26.40;99.90
13684;DHT22;6914;53.552;9.908;2022-08-19T13:02:26;26.20;99.90
13684;DHT22;6914;53.552;9.908;2022-08-19T13:04:54;26.10;99.90
13684;DHT22;6914;53.552;9.908;2022-08-19T13:07:22;25.90;99.90
13684;DHT22;6914;53.552;9.908;2022-08-19T13:09:51;25.60;99.90
13684;DHT22;6914;53.552;9.908;2022-08-19T13:12:18;25.40;99.90
13684;DHT22;6914;53.552;9.908;2022-08-19T13:14:46;25.30;99.90
13684;DHT22;6914;53.552;9.908;2022-08-19T13:17:15;25.30;99.90
13684;DHT22;6914;53.552;9.908;2022-08-19T13:19:42;25.60;99.90
13684;DHT22;6914;53.552;9.908;2022-08-19T13:22:09;25.90;99.90
13684;DHT22;6914;53.552;9.908;2022-08-19T13:24:38;26.00;99.90
13684;DHT22;6914;53.552;9.908;2022-08-19T13:27:05;25.90;99.90
13684;DHT22;6914;53.552;9.908;2022-08-19T13:29:32;25.70;99.90
13684;DHT22;6914;53.552;9.908;2022-08-19T13:32:17;25.60;99.90
13684;DHT22;6914;53.552;9.908;2022-08-19T13:35:07;25.60;99.90
13684;DHT22;6914;53.552;9.908;2022-08-19T13:37:35;25.40;99.90
13684;DHT22;6914;53.552;9.908;2022-08-19T13:40:12;25.30;99.90
13684;DHT22;6914;53.552;9.908;2022-08-19T13:42:41;25.20;99.90
13684;DHT22;6914;53.552;9.908;2022-08-19T13:45:09;25.10;99.90
13684;DHT22;6914;53.552;9.908;2022-08-19T13:47:37;25.10;99.90
13684;DHT22;6914;53.552;9.908;2022-08-19T13:50:11;25.20;99.90
13684;DHT22;6914;53.552;9.908;2022-08-19T13:52:38;25.20;99.90
13684;DHT22;6914;53.552;9.908;2022-08-19T13:55:06;25.30;99.90
13684;DHT22;6914;53.552;9.908;2022-08-19T13:57:36;25.20;99.90
13684;DHT22;6914;53.552;9.908;2022-08-19T14:00:08;25.10;99.90
13684;DHT22;6914;53.552;9.908;2022-08-19T14:02:36;25.00;99.90
13684;DHT22;6914;53.552;9.908;2022-08-19T14:05:03;25.20;99.90
13684;DHT22;6914;53.552;9.908;2022-08-19T14:07:31;25.20;99.90
13684;DHT22;6914;53.552;9.908;2022-08-19T14:09:59;25.10;99.90
13684;DHT22;6914;53.552;9.908;2022-08-19T14:12:26;25.00;99.90
13684;DHT22;6914;53.552;9.908;2022-08-19T14:14:54;24.90;99.90
13684;DHT22;6914;53.552;9.908;2022-08-19T14:17:22;24.90;99.90
13684;DHT22;6914;53.552;9.908;2022-08-19T14:19:50;24.80;99.90
13684;DHT22;6914;53.552;9.908;2022-08-19T14:22:22;24.80;99.90
13684;DHT22;6914;53.552;9.908;2022-08-19T14:24:49;24.80;99.90
13684;DHT22;6914;53.552;9.908;2022-08-19T14:27:16;24.90;99.90
13684;DHT22;6914;53.552;9.908;2022-08-19T14:29:43;25.00;99.90
13684;DHT22;6914;53.552;9.908;2022-08-19T14:32:12;25.10;99.90
13684;DHT22;6914;53.552;9.908;2022-08-19T14:34:39;25.10;99.90
13684;DHT22;6914;53.552;9.908;2022-08-19T14:37:06;25.00;99.90
13684;DHT22;6914;53.552;9.908;2022-08-19T14:39:34;24.80;99.90
13684;DHT22;6914;53.552;9.908;2022-08-19T14:42:05;24.80;99.90
13684;DHT22;6914;53.552;9.908;2022-08-19T14:44:33;24.80;99.90
13684;DHT22;6914;53.552;9.908;2022-08-19T14:47:01;24.60;99.90
13684;DHT22;6914;53.552;9.908;2022-08-19T14:49:30;24.80;99.90
13684;DHT22;6914;53.552;9.908;2022-08-19T14:51:57;24.80;99.90
13684;DHT22;6914;53.552;9.908;2022-08-19T14:54:24;24.80;99.90
13684;DHT22;6914;53.552;9.908;2022-08-19T14:56:51;24.90;99.90
13684;DHT22;6914;53.552;9.908;2022-08-19T14:59:18;24.90;99.90
13684;DHT22;6914;53.552;9.908;2022-08-19T15:01:45;24.90;99.90
13684;DHT22;6914;53.552;9.908;2022-08-19T15:04:13;24.90;99.90
13684;DHT22;6914;53.552;9.908;2022-08-19T15:06:42;24.70;99.90
13684;DHT22;6914;53.552;9.908;2022-08-19T15:09:10;24.70;99.90
13684;DHT22;6914;53.552;9.908;2022-08-19T15:11:37;24.80;99.90
13684;DHT22;6914;53.552;9.908;2022-08-19T15:14:04;24.80;99.90
13684;DHT22;6914;53.552;9.908;2022-08-19T15:16:32;24.90;99.90
13684;DHT22;6914;53.552;9.908;2022-08-19T15:18:59;25.00;99.90
13684;DHT22;6914;53.552;9.908;2022-08-19T15:21:27;25.10;99.90
13684;DHT22;6914;53.552;9.908;2022-08-19T15:23:57;25.10;99.90
13684;DHT22;6914;53.552;9.908;2022-08-19T15:26:26;25.10;99.90
13684;DHT22;6914;53.552;9.908;2022-08-19T15:28:57;25.10;99.90
13684;DHT22;6914;53.552;9.908;2022-08-19T15:31:25;25.10;99.90
13684;DHT22;6914;53.552;9.908;2022-08-19T15:33:54;25.00;99.90
13684;DHT22;6914;53.552;9.908;2022-08-19T15:36:23;25.00;99.90
13684;DHT22;6914;53.552;9.908;2022-08-19T15:38:50;25.10;99.90
13684;DHT22;6914;53.552;9.908;2022-08-19T15:41:22;24.90;99.90
13684;DHT22;6914;53.552;9.908;2022-08-19T15:43:51;25.10;99.90
13684;DHT22;6914;53.552;9.908;2022-08-19T15:46:21;25.10;99.90
13684;DHT22;6914;53.552;9.908;2022-08-19T15:48:49;25.00;99.90
13684;DHT22;6914;53.552;9.908;2022-08-19T15:51:18;25.00;99.90
13684;DHT22;6914;53.552;9.908;2022-08-19T15:53:45;24.90;99.90
13684;DHT22;6914;53.552;9.908;2022-08-19T15:56:13;24.80;99.90